Closter, New Jersey
Current Conditions -  °F | °C
As of 8:04 AM on Monday 22 Dec 2014 (Local Time) from KTEB Reporting Station
Overcast Overcast  
Wind Chill: 36°   Ceiling: 900
Heat Index: 36°   Visibility: 9mi
Dew Point: 30°   Wind: 0mph
Humidity: 81%   Direction: NA
Pressure: 30.33"   Gusts: NA
Location:  40.97°N, 73.96°W
Report Text: KTEB 221304Z 00000KT 9SM OVC009 02/M01 A3033 RMK AO2
Loading
Personal Weather Stations






























Interactive Weather Map New forecast layout! Learn more

10-Day Weather Forecast

Advertisements
Track Severe Weather on mobile